sensor_id;sensor_type;location;lat;lon;timestamp;P1;durP1;ratioP1;P2;durP2;ratioP2
92;SDS011;16232;48.800;9.002;2023-06-10T00:02:21;10.60;;;9.70;;
92;SDS011;16232;48.800;9.002;2023-06-10T00:04:49;10.87;;;9.77;;
92;SDS011;16232;48.800;9.002;2023-06-10T00:07:19;11.57;;;10.57;;
92;SDS011;16232;48.800;9.002;2023-06-10T00:09:46;11.97;;;10.77;;
92;SDS011;16232;48.800;9.002;2023-06-10T00:12:14;12.50;;;11.50;;
92;SDS011;16232;48.800;9.002;2023-06-10T00:14:42;11.00;;;10.10;;
92;SDS011;16232;48.800;9.002;2023-06-10T00:17:09;12.03;;;10.83;;
92;SDS011;16232;48.800;9.002;2023-06-10T00:19:37;11.27;;;10.27;;
92;SDS011;16232;48.800;9.002;2023-06-10T00:22:06;12.87;;;11.50;;
92;SDS011;16232;48.800;9.002;2023-06-10T00:24:37;10.77;;;9.67;;
92;SDS011;16232;48.800;9.002;2023-06-10T00:27:04;11.43;;;10.37;;
92;SDS011;16232;48.800;9.002;2023-06-10T00:29:32;12.73;;;11.63;;
92;SDS011;16232;48.800;9.002;2023-06-10T00:31:59;11.43;;;10.43;;
92;SDS011;16232;48.800;9.002;2023-06-10T00:34:27;13.20;;;12.00;;
92;SDS011;16232;48.800;9.002;2023-06-10T00:36:54;11.93;;;10.77;;
92;SDS011;16232;48.800;9.002;2023-06-10T00:39:21;12.60;;;11.50;;
92;SDS011;16232;48.800;9.002;2023-06-10T00:41:50;11.00;;;10.10;;
92;SDS011;16232;48.800;9.002;2023-06-10T00:44:18;11.70;;;10.53;;
92;SDS011;16232;48.800;9.002;2023-06-10T00:46:45;12.37;;;11.17;;
92;SDS011;16232;48.800;9.002;2023-06-10T00:49:14;14.10;;;12.90;;
92;SDS011;16232;48.800;9.002;2023-06-10T00:51:42;11.83;;;10.83;;
92;SDS011;16232;48.800;9.002;2023-06-10T00:54:09;14.97;;;13.77;;
92;SDS011;16232;48.800;9.002;2023-06-10T00:56:38;14.70;;;13.40;;
92;SDS011;16232;48.800;9.002;2023-06-10T00:59:09;13.80;;;12.50;;
92;SDS011;16232;48.800;9.002;2023-06-10T01:01:37;13.37;;;12.17;;
92;SDS011;16232;48.800;9.002;2023-06-10T01:04:04;14.23;;;12.97;;
92;SDS011;16232;48.800;9.002;2023-06-10T01:06:34;13.40;;;12.20;;
92;SDS011;16232;48.800;9.002;2023-06-10T01:09:06;14.67;;;13.37;;
92;SDS011;16232;48.800;9.002;2023-06-10T01:11:40;14.87;;;13.47;;
92;SDS011;16232;48.800;9.002;2023-06-10T01:14:11;14.27;;;13.07;;
92;SDS011;16232;48.800;9.002;2023-06-10T01:16:39;12.97;;;11.77;;
92;SDS011;16232;48.800;9.002;2023-06-10T01:19:07;14.30;;;13.13;;
92;SDS011;16232;48.800;9.002;2023-06-10T01:21:38;15.87;;;14.57;;
92;SDS011;16232;48.800;9.002;2023-06-10T01:24:06;14.27;;;12.97;;
92;SDS011;16232;48.800;9.002;2023-06-10T01:26:33;16.33;;;14.83;;
92;SDS011;16232;48.800;9.002;2023-06-10T01:29:03;13.50;;;12.40;;
92;SDS011;16232;48.800;9.002;2023-06-10T01:31:33;14.73;;;13.43;;
92;SDS011;16232;48.800;9.002;2023-06-10T01:34:05;14.60;;;13.30;;
92;SDS011;16232;48.800;9.002;2023-06-10T01:36:34;15.13;;;13.93;;
92;SDS011;16232;48.800;9.002;2023-06-10T01:39:04;16.03;;;14.63;;
92;SDS011;16232;48.800;9.002;2023-06-10T01:41:32;15.97;;;14.47;;
92;SDS011;16232;48.800;9.002;2023-06-10T01:43:59;16.07;;;14.77;;
92;SDS011;16232;48.800;9.002;2023-06-10T01:46:27;14.73;;;13.53;;
92;SDS011;16232;48.800;9.002;2023-06-10T01:48:55;15.60;;;14.20;;
92;SDS011;16232;48.800;9.002;2023-06-10T01:51:22;14.83;;;13.47;;
92;SDS011;16232;48.800;9.002;2023-06-10T01:53:50;14.90;;;13.70;;
92;SDS011;16232;48.800;9.002;2023-06-10T01:56:19;14.17;;;12.97;;
92;SDS011;16232;48.800;9.002;2023-06-10T01:58:46;13.90;;;12.70;;
92;SDS011;16232;48.800;9.002;2023-06-10T02:01:13;16.10;;;14.57;;
92;SDS011;16232;48.800;9.002;2023-06-10T02:03:41;15.87;;;14.40;;
92;SDS011;16232;48.800;9.002;2023-06-10T02:06:08;14.23;;;13.13;;
92;SDS011;16232;48.800;9.002;2023-06-10T02:08:35;14.37;;;13.17;;
92;SDS011;16232;48.800;9.002;2023-06-10T02:11:03;15.87;;;14.37;;
92;SDS011;16232;48.800;9.002;2023-06-10T02:13:33;16.13;;;14.53;;
92;SDS011;16232;48.800;9.002;2023-06-10T02:16:01;16.67;;;15.17;;
92;SDS011;16232;48.800;9.002;2023-06-10T02:18:28;16.30;;;14.97;;
92;SDS011;16232;48.800;9.002;2023-06-10T02:20:55;16.33;;;14.93;;
92;SDS011;16232;48.800;9.002;2023-06-10T02:23:23;15.83;;;14.43;;
92;SDS011;16232;48.800;9.002;2023-06-10T02:25:50;16.23;;;14.63;;
92;SDS011;16232;48.800;9.002;2023-06-10T02:28:18;15.97;;;14.57;;
92;SDS011;16232;48.800;9.002;2023-06-10T02:30:46;14.27;;;13.07;;
92;SDS011;16232;48.800;9.002;2023-06-10T02:33:17;15.80;;;14.43;;
92;SDS011;16232;48.800;9.002;2023-06-10T02:35:45;14.77;;;13.53;;
92;SDS011;16232;48.800;9.002;2023-06-10T02:38:12;15.37;;;13.97;;
92;SDS011;16232;48.800;9.002;2023-06-10T02:40:40;14.57;;;13.37;;
92;SDS011;16232;48.800;9.002;2023-06-10T02:43:07;14.53;;;13.13;;
92;SDS011;16232;48.800;9.002;2023-06-10T02:45:34;15.77;;;14.33;;
92;SDS011;16232;48.800;9.002;2023-06-10T02:48:03;15.13;;;13.63;;
92;SDS011;16232;48.800;9.002;2023-06-10T02:50:31;13.80;;;12.60;;
92;SDS011;16232;48.800;9.002;2023-06-10T02:52:58;15.87;;;14.57;;
92;SDS011;16232;48.800;9.002;2023-06-10T02:55:25;16.13;;;14.90;;
92;SDS011;16232;48.800;9.002;2023-06-10T02:57:54;14.50;;;13.30;;
92;SDS011;16232;48.800;9.002;2023-06-10T03:00:22;16.50;;;15.07;;
92;SDS011;16232;48.800;9.002;2023-06-10T03:02:49;15.07;;;13.67;;
92;SDS011;16232;48.800;9.002;2023-06-10T03:05:18;15.10;;;13.80;;
92;SDS011;16232;48.800;9.002;2023-06-10T03:07:46;14.93;;;13.53;;
92;SDS011;16232;48.800;9.002;2023-06-10T03:10:13;14.07;;;12.80;;
92;SDS011;16232;48.800;9.002;2023-06-10T03:12:41;15.53;;;14.23;;
92;SDS011;16232;48.800;9.002;2023-06-10T03:15:08;16.23;;;14.93;;
92;SDS011;16232;48.800;9.002;2023-06-10T03:17:36;18.00;;;16.30;;
92;SDS011;16232;48.800;9.002;2023-06-10T03:20:03;16.60;;;15.23;;
92;SDS011;16232;48.800;9.002;2023-06-10T03:22:34;15.90;;;14.50;;
92;SDS011;16232;48.800;9.002;2023-06-10T03:25:03;14.70;;;13.40;;
92;SDS011;16232;48.800;9.002;2023-06-10T03:27:31;16.23;;;14.73;;
92;SDS011;16232;48.800;9.002;2023-06-10T03:30:00;16.30;;;14.80;;
92;SDS011;16232;48.800;9.002;2023-06-10T03:32:28;18.13;;;16.53;;
92;SDS011;16232;48.800;9.002;2023-06-10T03:34:55;13.43;;;12.30;;
92;SDS011;16232;48.800;9.002;2023-06-10T03:37:23;14.17;;;12.90;;
92;SDS011;16232;48.800;9.002;2023-06-10T03:39:52;15.40;;;14.10;;
92;SDS011;16232;48.800;9.002;2023-06-10T03:42:19;17.07;;;15.67;;
92;SDS011;16232;48.800;9.002;2023-06-10T03:44:46;15.10;;;13.87;;
92;SDS011;16232;48.800;9.002;2023-06-10T03:47:14;17.60;;;16.10;;
92;SDS011;16232;48.800;9.002;2023-06-10T03:49:41;13.87;;;12.73;;
92;SDS011;16232;48.800;9.002;2023-06-10T03:52:09;15.17;;;13.83;;
92;SDS011;16232;48.800;9.002;2023-06-10T03:54:36;15.77;;;14.40;;
92;SDS011;16232;48.800;9.002;2023-06-10T03:57:05;18.87;;;16.97;;
92;SDS011;16232;48.800;9.002;2023-06-10T03:59:32;15.43;;;14.13;;
92;SDS011;16232;48.800;9.002;2023-06-10T04:02:00;16.57;;;15.17;;
92;SDS011;16232;48.800;9.002;2023-06-10T04:04:27;14.90;;;13.50;;
92;SDS011;16232;48.800;9.002;2023-06-10T04:06:55;15.57;;;14.17;;
92;SDS011;16232;48.800;9.002;2023-06-10T04:09:22;16.07;;;14.57;;
92;SDS011;16232;48.800;9.002;2023-06-10T04:11:50;16.73;;;15.30;;
92;SDS011;16232;48.800;9.002;2023-06-10T04:14:19;16.27;;;14.77;;
92;SDS011;16232;48.800;9.002;2023-06-10T04:16:47;15.33;;;13.97;;
92;SDS011;16232;48.800;9.002;2023-06-10T04:19:14;14.63;;;13.33;;
92;SDS011;16232;48.800;9.002;2023-06-10T04:21:41;13.97;;;12.77;;
92;SDS011;16232;48.800;9.002;2023-06-10T04:24:09;14.93;;;13.70;;
92;SDS011;16232;48.800;9.002;2023-06-10T04:26:37;14.73;;;13.23;;
92;SDS011;16232;48.800;9.002;2023-06-10T04:29:04;15.60;;;14.03;;
92;SDS011;16232;48.800;9.002;2023-06-10T04:31:33;13.47;;;12.37;;
92;SDS011;16232;48.800;9.002;2023-06-10T04:34:01;12.47;;;11.47;;
92;SDS011;16232;48.800;9.002;2023-06-10T04:36:28;13.00;;;11.90;;
92;SDS011;16232;48.800;9.002;2023-06-10T04:38:56;13.33;;;12.23;;
92;SDS011;16232;48.800;9.002;2023-06-10T04:41:24;14.37;;;12.97;;
92;SDS011;16232;48.800;9.002;2023-06-10T04:43:52;12.87;;;11.37;;
92;SDS011;16232;48.800;9.002;2023-06-10T04:46:19;13.33;;;12.23;;
92;SDS011;16232;48.800;9.002;2023-06-10T04:48:48;12.90;;;11.70;;
92;SDS011;16232;48.800;9.002;2023-06-10T04:51:16;12.30;;;11.30;;
92;SDS011;16232;48.800;9.002;2023-06-10T04:53:43;12.17;;;11.17;;
92;SDS011;16232;48.800;9.002;2023-06-10T04:56:11;11.97;;;10.97;;
92;SDS011;16232;48.800;9.002;2023-06-10T04:58:38;11.70;;;10.70;;
92;SDS011;16232;48.800;9.002;2023-06-10T05:01:05;12.30;;;11.20;;
92;SDS011;16232;48.800;9.002;2023-06-10T05:03:33;12.50;;;11.40;;
92;SDS011;16232;48.800;9.002;2023-06-10T05:06:01;12.60;;;11.40;;
92;SDS011;16232;48.800;9.002;2023-06-10T05:08:29;13.10;;;12.00;;
92;SDS011;16232;48.800;9.002;2023-06-10T05:10:56;12.57;;;11.47;;
92;SDS011;16232;48.800;9.002;2023-06-10T05:13:24;12.90;;;11.80;;
92;SDS011;16232;48.800;9.002;2023-06-10T05:15:51;12.37;;;11.23;;
92;SDS011;16232;48.800;9.002;2023-06-10T05:18:19;12.60;;;11.57;;
92;SDS011;16232;48.800;9.002;2023-06-10T05:20:46;10.87;;;10.00;;
92;SDS011;16232;48.800;9.002;2023-06-10T05:23:15;10.90;;;10.00;;
92;SDS011;16232;48.800;9.002;2023-06-10T05:25:43;10.10;;;9.20;;
92;SDS011;16232;48.800;9.002;2023-06-10T05:28:11;10.53;;;9.53;;
92;SDS011;16232;48.800;9.002;2023-06-10T05:30:38;10.27;;;9.37;;
92;SDS011;16232;48.800;9.002;2023-06-10T05:33:05;10.30;;;9.30;;
92;SDS011;16232;48.800;9.002;2023-06-10T05:35:33;10.33;;;9.43;;
92;SDS011;16232;48.800;9.002;2023-06-10T05:38:00;10.13;;;9.23;;
92;SDS011;16232;48.800;9.002;2023-06-10T05:40:29;10.33;;;9.47;;
92;SDS011;16232;48.800;9.002;2023-06-10T05:42:56;9.43;;;8.63;;
92;SDS011;16232;48.800;9.002;2023-06-10T05:45:24;9.07;;;8.37;;
92;SDS011;16232;48.800;9.002;2023-06-10T05:47:51;8.27;;;7.53;;
92;SDS011;16232;48.800;9.002;2023-06-10T05:50:18;8.17;;;7.47;;
92;SDS011;16232;48.800;9.002;2023-06-10T05:52:46;8.23;;;7.53;;
92;SDS011;16232;48.800;9.002;2023-06-10T05:55:13;7.67;;;6.97;;
92;SDS011;16232;48.800;9.002;2023-06-10T05:57:42;7.93;;;7.13;;
92;SDS011;16232;48.800;9.002;2023-06-10T06:00:10;7.43;;;6.83;;
92;SDS011;16232;48.800;9.002;2023-06-10T06:02:38;7.30;;;6.70;;
92;SDS011;16232;48.800;9.002;2023-06-10T06:05:06;6.80;;;6.30;;
92;SDS011;16232;48.800;9.002;2023-06-10T06:07:33;6.27;;;5.77;;
92;SDS011;16232;48.800;9.002;2023-06-10T06:10:01;6.40;;;5.80;;
92;SDS011;16232;48.800;9.002;2023-06-10T06:12:28;5.77;;;5.27;;
92;SDS011;16232;48.800;9.002;2023-06-10T06:14:57;5.53;;;4.90;;
92;SDS011;16232;48.800;9.002;2023-06-10T06:17:24;6.10;;;5.60;;
92;SDS011;16232;48.800;9.002;2023-06-10T06:19:52;6.63;;;5.80;;
92;SDS011;16232;48.800;9.002;2023-06-10T06:22:19;6.63;;;6.03;;
92;SDS011;16232;48.800;9.002;2023-06-10T06:24:47;5.70;;;5.30;;
92;SDS011;16232;48.800;9.002;2023-06-10T06:27:14;6.20;;;5.60;;
92;SDS011;16232;48.800;9.002;2023-06-10T06:29:42;4.93;;;4.53;;
92;SDS011;16232;48.800;9.002;2023-06-10T06:32:11;5.87;;;5.37;;
92;SDS011;16232;48.800;9.002;2023-06-10T06:34:38;4.80;;;4.40;;
92;SDS011;16232;48.800;9.002;2023-06-10T06:37:05;5.40;;;4.90;;
92;SDS011;16232;48.800;9.002;2023-06-10T06:39:33;5.10;;;4.30;;
92;SDS011;16232;48.800;9.002;2023-06-10T06:42:00;5.77;;;5.20;;
92;SDS011;16232;48.800;9.002;2023-06-10T06:44:28;5.30;;;4.73;;
92;SDS011;16232;48.800;9.002;2023-06-10T06:46:55;5.33;;;4.93;;
92;SDS011;16232;48.800;9.002;2023-06-10T06:49:24;5.37;;;4.90;;
92;SDS011;16232;48.800;9.002;2023-06-10T06:51:51;5.37;;;4.93;;
92;SDS011;16232;48.800;9.002;2023-06-10T06:54:19;5.30;;;4.90;;
92;SDS011;16232;48.800;9.002;2023-06-10T06:56:46;5.00;;;4.60;;
92;SDS011;16232;48.800;9.002;2023-06-10T06:59:14;4.40;;;4.10;;
92;SDS011;16232;48.800;9.002;2023-06-10T07:01:44;5.50;;;5.00;;
92;SDS011;16232;48.800;9.002;2023-06-10T07:04:11;5.40;;;4.90;;
92;SDS011;16232;48.800;9.002;2023-06-10T07:06:40;5.70;;;5.20;;
92;SDS011;16232;48.800;9.002;2023-06-10T07:09:08;4.60;;;4.20;;
92;SDS011;16232;48.800;9.002;2023-06-10T07:11:35;4.77;;;4.47;;
92;SDS011;16232;48.800;9.002;2023-06-10T07:14:02;5.47;;;5.03;;
92;SDS011;16232;48.800;9.002;2023-06-10T07:16:30;6.03;;;5.43;;
92;SDS011;16232;48.800;9.002;2023-06-10T07:18:57;4.67;;;4.30;;
92;SDS011;16232;48.800;9.002;2023-06-10T07:21:25;4.60;;;4.30;;
92;SDS011;16232;48.800;9.002;2023-06-10T07:23:55;4.63;;;4.23;;
92;SDS011;16232;48.800;9.002;2023-06-10T07:26:22;4.20;;;3.90;;
92;SDS011;16232;48.800;9.002;2023-06-10T07:28:50;4.30;;;4.00;;
92;SDS011;16232;48.800;9.002;2023-06-10T07:31:18;3.87;;;3.57;;
92;SDS011;16232;48.800;9.002;2023-06-10T07:33:46;4.17;;;3.77;;
92;SDS011;16232;48.800;9.002;2023-06-10T07:36:13;4.43;;;4.00;;
92;SDS011;16232;48.800;9.002;2023-06-10T07:38:40;4.50;;;4.20;;
92;SDS011;16232;48.800;9.002;2023-06-10T07:41:09;4.33;;;4.03;;
92;SDS011;16232;48.800;9.002;2023-06-10T07:43:37;4.40;;;4.00;;
92;SDS011;16232;48.800;9.002;2023-06-10T07:46:05;4.20;;;3.87;;
92;SDS011;16232;48.800;9.002;2023-06-10T07:48:32;4.80;;;4.20;;
92;SDS011;16232;48.800;9.002;2023-06-10T07:51:00;3.87;;;3.47;;
92;SDS011;16232;48.800;9.002;2023-06-10T07:53:27;4.47;;;4.17;;
92;SDS011;16232;48.800;9.002;2023-06-10T07:55:54;4.30;;;3.87;;
92;SDS011;16232;48.800;9.002;2023-06-10T07:58:23;4.17;;;3.87;;
92;SDS011;16232;48.800;9.002;2023-06-10T08:00:51;4.37;;;4.07;;
92;SDS011;16232;48.800;9.002;2023-06-10T08:03:18;4.23;;;3.83;;
92;SDS011;16232;48.800;9.002;2023-06-10T08:05:45;3.87;;;3.57;;
92;SDS011;16232;48.800;9.002;2023-06-10T08:08:13;4.20;;;3.90;;
92;SDS011;16232;48.800;9.002;2023-06-10T08:10:40;4.13;;;3.73;;
92;SDS011;16232;48.800;9.002;2023-06-10T08:13:08;4.33;;;3.93;;
92;SDS011;16232;48.800;9.002;2023-06-10T08:15:36;4.70;;;4.40;;
92;SDS011;16232;48.800;9.002;2023-06-10T08:18:04;4.90;;;4.50;;
92;SDS011;16232;48.800;9.002;2023-06-10T08:20:31;4.90;;;4.50;;
92;SDS011;16232;48.800;9.002;2023-06-10T08:22:59;4.40;;;4.00;;
92;SDS011;16232;48.800;9.002;2023-06-10T08:25:26;4.67;;;4.27;;
92;SDS011;16232;48.800;9.002;2023-06-10T08:27:54;4.73;;;4.30;;
92;SDS011;16232;48.800;9.002;2023-06-10T08:30:22;4.43;;;4.03;;
92;SDS011;16232;48.800;9.002;2023-06-10T08:32:51;4.43;;;4.07;;
92;SDS011;16232;48.800;9.002;2023-06-10T08:35:19;4.22;;;3.92;;
92;SDS011;16232;48.800;9.002;2023-06-10T08:37:46;4.82;;;4.43;;
92;SDS011;16232;48.800;9.002;2023-06-10T08:40:13;4.00;;;3.72;;
92;SDS011;16232;48.800;9.002;2023-06-10T08:42:43;3.97;;;3.67;;
92;SDS011;16232;48.800;9.002;2023-06-10T08:45:11;5.65;;;4.20;;
92;SDS011;16232;48.800;9.002;2023-06-10T08:47:39;3.78;;;3.55;;
92;SDS011;16232;48.800;9.002;2023-06-10T08:50:10;4.82;;;4.20;;
92;SDS011;16232;48.800;9.002;2023-06-10T08:52:41;3.80;;;3.50;;
92;SDS011;16232;48.800;9.002;2023-06-10T08:55:11;4.03;;;3.70;;
92;SDS011;16232;48.800;9.002;2023-06-10T08:57:40;4.40;;;4.00;;
92;SDS011;16232;48.800;9.002;2023-06-10T09:00:08;4.03;;;3.72;;
92;SDS011;16232;48.800;9.002;2023-06-10T09:02:35;4.35;;;3.95;;
92;SDS011;16232;48.800;9.002;2023-06-10T09:05:03;4.68;;;4.28;;
92;SDS011;16232;48.800;9.002;2023-06-10T09:07:32;4.50;;;4.20;;
92;SDS011;16232;48.800;9.002;2023-06-10T09:10:01;4.10;;;3.80;;
92;SDS011;16232;48.800;9.002;2023-06-10T09:12:32;4.10;;;3.70;;
92;SDS011;16232;48.800;9.002;2023-06-10T09:15:00;4.32;;;4.03;;
92;SDS011;16232;48.800;9.002;2023-06-10T09:17:27;3.92;;;3.55;;
92;SDS011;16232;48.800;9.002;2023-06-10T09:19:55;4.32;;;3.95;;
92;SDS011;16232;48.800;9.002;2023-06-10T09:22:23;4.07;;;3.78;;
92;SDS011;16232;48.800;9.002;2023-06-10T09:24:53;4.60;;;4.20;;
92;SDS011;16232;48.800;9.002;2023-06-10T09:27:29;4.20;;;3.85;;
92;SDS011;16232;48.800;9.002;2023-06-10T09:29:57;3.67;;;3.40;;
92;SDS011;16232;48.800;9.002;2023-06-10T09:32:25;3.95;;;3.70;;
92;SDS011;16232;48.800;9.002;2023-06-10T09:34:52;4.68;;;3.85;;
92;SDS011;16232;48.800;9.002;2023-06-10T09:37:20;4.25;;;3.95;;
92;SDS011;16232;48.800;9.002;2023-06-10T09:40:01;4.45;;;4.10;;
92;SDS011;16232;48.800;9.002;2023-06-10T09:42:32;4.50;;;4.10;;
92;SDS011;16232;48.800;9.002;2023-06-10T09:45:00;3.92;;;3.70;;
92;SDS011;16232;48.800;9.002;2023-06-10T09:47:28;3.72;;;3.42;;
92;SDS011;16232;48.800;9.002;2023-06-10T09:49:55;4.40;;;4.03;;
92;SDS011;16232;48.800;9.002;2023-06-10T09:52:23;4.28;;;3.97;;
92;SDS011;16232;48.800;9.002;2023-06-10T09:54:50;4.10;;;3.90;;
92;SDS011;16232;48.800;9.002;2023-06-10T09:57:19;4.13;;;3.72;;
92;SDS011;16232;48.800;9.002;2023-06-10T09:59:48;4.47;;;4.07;;
92;SDS011;16232;48.800;9.002;2023-06-10T10:02:20;3.50;;;3.30;;
92;SDS011;16232;48.800;9.002;2023-06-10T10:04:47;3.55;;;3.33;;
92;SDS011;16232;48.800;9.002;2023-06-10T10:07:15;3.90;;;3.60;;
92;SDS011;16232;48.800;9.002;2023-06-10T10:09:42;3.40;;;3.00;;
92;SDS011;16232;48.800;9.002;2023-06-10T10:12:10;3.90;;;3.25;;
92;SDS011;16232;48.800;9.002;2023-06-10T10:14:39;4.22;;;3.83;;
92;SDS011;16232;48.800;9.002;2023-06-10T10:17:10;4.18;;;3.88;;
92;SDS011;16232;48.800;9.002;2023-06-10T10:19:40;4.00;;;3.67;;
92;SDS011;16232;48.800;9.002;2023-06-10T10:22:10;3.80;;;3.50;;
92;SDS011;16232;48.800;9.002;2023-06-10T10:24:38;3.83;;;3.53;;
92;SDS011;16232;48.800;9.002;2023-06-10T10:27:11;4.28;;;3.58;;
92;SDS011;16232;48.800;9.002;2023-06-10T10:29:42;3.30;;;3.10;;
92;SDS011;16232;48.800;9.002;2023-06-10T10:32:13;3.70;;;3.40;;
92;SDS011;16232;48.800;9.002;2023-06-10T10:34:42;3.60;;;3.40;;
92;SDS011;16232;48.800;9.002;2023-06-10T10:37:11;4.47;;;3.20;;
92;SDS011;16232;48.800;9.002;2023-06-10T10:39:38;3.60;;;3.30;;
92;SDS011;16232;48.800;9.002;2023-06-10T10:42:06;3.42;;;3.22;;
92;SDS011;16232;48.800;9.002;2023-06-10T10:44:35;3.50;;;3.30;;
92;SDS011;16232;48.800;9.002;2023-06-10T10:47:06;4.25;;;3.50;;
92;SDS011;16232;48.800;9.002;2023-06-10T10:49:35;4.00;;;3.70;;
92;SDS011;16232;48.800;9.002;2023-06-10T10:52:04;3.60;;;3.30;;
92;SDS011;16232;48.800;9.002;2023-06-10T10:54:33;4.00;;;3.70;;
92;SDS011;16232;48.800;9.002;2023-06-10T10:57:11;3.78;;;3.47;;
92;SDS011;16232;48.800;9.002;2023-06-10T10:59:45;4.22;;;3.92;;
92;SDS011;16232;48.800;9.002;2023-06-10T11:02:17;3.78;;;3.47;;
92;SDS011;16232;48.800;9.002;2023-06-10T11:04:46;4.95;;;3.60;;
92;SDS011;16232;48.800;9.002;2023-06-10T11:07:13;3.58;;;3.28;;
92;SDS011;16232;48.800;9.002;2023-06-10T11:09:57;4.47;;;3.70;;
92;SDS011;16232;48.800;9.002;2023-06-10T11:12:25;3.72;;;3.45;;
92;SDS011;16232;48.800;9.002;2023-06-10T11:14:55;3.47;;;3.28;;
92;SDS011;16232;48.800;9.002;2023-06-10T11:17:24;4.03;;;3.72;;
92;SDS011;16232;48.800;9.002;2023-06-10T11:19:53;4.13;;;3.83;;
92;SDS011;16232;48.800;9.002;2023-06-10T11:22:20;3.90;;;3.60;;
92;SDS011;16232;48.800;9.002;2023-06-10T11:24:48;5.03;;;3.93;;
92;SDS011;16232;48.800;9.002;2023-06-10T11:27:17;5.83;;;4.83;;
92;SDS011;16232;48.800;9.002;2023-06-10T11:29:57;4.27;;;3.97;;
92;SDS011;16232;48.800;9.002;2023-06-10T11:32:28;4.45;;;4.05;;
92;SDS011;16232;48.800;9.002;2023-06-10T11:34:56;3.80;;;3.50;;
92;SDS011;16232;48.800;9.002;2023-06-10T11:37:24;3.25;;;2.95;;
92;SDS011;16232;48.800;9.002;2023-06-10T11:39:52;3.55;;;3.25;;
92;SDS011;16232;48.800;9.002;2023-06-10T11:42:19;5.10;;;3.67;;
92;SDS011;16232;48.800;9.002;2023-06-10T11:44:48;3.63;;;3.33;;
92;SDS011;16232;48.800;9.002;2023-06-10T11:47:16;3.78;;;3.20;;
92;SDS011;16232;48.800;9.002;2023-06-10T11:49:45;3.72;;;3.25;;
92;SDS011;16232;48.800;9.002;2023-06-10T11:52:12;3.47;;;3.17;;
92;SDS011;16232;48.800;9.002;2023-06-10T11:54:39;3.50;;;3.20;;
92;SDS011;16232;48.800;9.002;2023-06-10T11:57:07;4.05;;;3.72;;
92;SDS011;16232;48.800;9.002;2023-06-10T11:59:35;3.53;;;3.13;;
92;SDS011;16232;48.800;9.002;2023-06-10T12:02:04;3.42;;;3.13;;
92;SDS011;16232;48.800;9.002;2023-06-10T12:04:31;3.15;;;2.75;;
92;SDS011;16232;48.800;9.002;2023-06-10T12:07:00;3.60;;;3.30;;
92;SDS011;16232;48.800;9.002;2023-06-10T12:09:28;2.75;;;2.58;;
92;SDS011;16232;48.800;9.002;2023-06-10T12:11:57;4.43;;;3.00;;
92;SDS011;16232;48.800;9.002;2023-06-10T12:17:12;3.40;;;3.08;;
92;SDS011;16232;48.800;9.002;2023-06-10T12:19:40;3.53;;;2.88;;
92;SDS011;16232;48.800;9.002;2023-06-10T12:22:09;3.55;;;3.25;;
92;SDS011;16232;48.800;9.002;2023-06-10T12:24:43;3.70;;;3.22;;
92;SDS011;16232;48.800;9.002;2023-06-10T12:27:11;3.42;;;3.22;;
92;SDS011;16232;48.800;9.002;2023-06-10T12:29:38;4.00;;;3.70;;
92;SDS011;16232;48.800;9.002;2023-06-10T12:32:06;3.00;;;2.80;;
92;SDS011;16232;48.800;9.002;2023-06-10T12:34:34;3.58;;;3.28;;
92;SDS011;16232;48.800;9.002;2023-06-10T12:37:02;3.42;;;3.22;;
92;SDS011;16232;48.800;9.002;2023-06-10T12:39:33;3.50;;;3.20;;
92;SDS011;16232;48.800;9.002;2023-06-10T12:42:00;3.35;;;3.15;;
92;SDS011;16232;48.800;9.002;2023-06-10T12:44:29;3.50;;;3.20;;
92;SDS011;16232;48.800;9.002;2023-06-10T12:46:56;3.03;;;2.83;;
92;SDS011;16232;48.800;9.002;2023-06-10T12:49:23;3.65;;;3.10;;
92;SDS011;16232;48.800;9.002;2023-06-10T12:51:51;3.40;;;3.20;;
92;SDS011;16232;48.800;9.002;2023-06-10T12:54:19;3.60;;;3.30;;
92;SDS011;16232;48.800;9.002;2023-06-10T12:56:48;3.80;;;3.50;;
92;SDS011;16232;48.800;9.002;2023-06-10T12:59:15;3.35;;;3.15;;
92;SDS011;16232;48.800;9.002;2023-06-10T13:01:43;3.50;;;3.30;;
92;SDS011;16232;48.800;9.002;2023-06-10T13:04:10;3.50;;;3.20;;
92;SDS011;16232;48.800;9.002;2023-06-10T13:06:37;3.22;;;2.83;;
92;SDS011;16232;48.800;9.002;2023-06-10T13:09:05;3.38;;;3.15;;
92;SDS011;16232;48.800;9.002;2023-06-10T13:11:33;3.25;;;3.05;;
92;SDS011;16232;48.800;9.002;2023-06-10T13:14:03;3.60;;;3.30;;
92;SDS011;16232;48.800;9.002;2023-06-10T13:16:31;4.37;;;3.97;;
92;SDS011;16232;48.800;9.002;2023-06-10T13:18:59;3.83;;;3.27;;
92;SDS011;16232;48.800;9.002;2023-06-10T13:21:28;3.50;;;3.20;;
92;SDS011;16232;48.800;9.002;2023-06-10T13:23:55;3.77;;;3.47;;
92;SDS011;16232;48.800;9.002;2023-06-10T13:26:22;4.07;;;3.77;;
92;SDS011;16232;48.800;9.002;2023-06-10T13:28:50;5.73;;;3.47;;
92;SDS011;16232;48.800;9.002;2023-06-10T13:31:19;3.43;;;3.23;;
92;SDS011;16232;48.800;9.002;2023-06-10T13:33:47;3.97;;;3.67;;
92;SDS011;16232;48.800;9.002;2023-06-10T13:36:14;4.00;;;3.70;;
92;SDS011;16232;48.800;9.002;2023-06-10T13:38:42;3.57;;;3.27;;
92;SDS011;16232;48.800;9.002;2023-06-10T13:41:09;3.47;;;3.17;;
92;SDS011;16232;48.800;9.002;2023-06-10T13:43:37;3.70;;;3.40;;
92;SDS011;16232;48.800;9.002;2023-06-10T13:46:05;3.15;;;2.83;;
92;SDS011;16232;48.800;9.002;2023-06-10T13:48:34;3.15;;;2.85;;
92;SDS011;16232;48.800;9.002;2023-06-10T13:51:01;3.13;;;2.80;;
92;SDS011;16232;48.800;9.002;2023-06-10T13:53:29;3.40;;;3.00;;
92;SDS011;16232;48.800;9.002;2023-06-10T13:55:56;3.40;;;3.10;;
92;SDS011;16232;48.800;9.002;2023-06-10T13:58:24;3.83;;;3.10;;
92;SDS011;16232;48.800;9.002;2023-06-10T14:00:52;3.30;;;3.00;;
92;SDS011;16232;48.800;9.002;2023-06-10T14:03:19;3.40;;;3.10;;
92;SDS011;16232;48.800;9.002;2023-06-10T14:05:48;3.20;;;3.00;;
92;SDS011;16232;48.800;9.002;2023-06-10T14:08:15;3.37;;;3.17;;
92;SDS011;16232;48.800;9.002;2023-06-10T14:10:43;3.77;;;3.37;;
92;SDS011;16232;48.800;9.002;2023-06-10T14:13:10;3.33;;;3.13;;
92;SDS011;16232;48.800;9.002;2023-06-10T14:15:38;3.53;;;3.23;;
92;SDS011;16232;48.800;9.002;2023-06-10T14:18:05;5.83;;;3.50;;
92;SDS011;16232;48.800;9.002;2023-06-10T14:20:33;4.57;;;3.80;;
92;SDS011;16232;48.800;9.002;2023-06-10T14:23:01;4.40;;;3.00;;
92;SDS011;16232;48.800;9.002;2023-06-10T14:25:29;3.27;;;2.97;;
92;SDS011;16232;48.800;9.002;2023-06-10T14:27:57;2.90;;;2.60;;
92;SDS011;16232;48.800;9.002;2023-06-10T14:30:24;3.33;;;3.03;;
92;SDS011;16232;48.800;9.002;2023-06-10T14:32:51;3.10;;;2.90;;
92;SDS011;16232;48.800;9.002;2023-06-10T14:35:19;3.30;;;2.77;;
92;SDS011;16232;48.800;9.002;2023-06-10T14:37:46;3.33;;;3.03;;
92;SDS011;16232;48.800;9.002;2023-06-10T14:40:15;3.37;;;3.17;;
92;SDS011;16232;48.800;9.002;2023-06-10T14:42:43;3.20;;;3.00;;
92;SDS011;16232;48.800;9.002;2023-06-10T14:45:10;3.30;;;3.00;;
92;SDS011;16232;48.800;9.002;2023-06-10T14:47:37;3.27;;;3.07;;
92;SDS011;16232;48.800;9.002;2023-06-10T14:50:05;3.53;;;3.33;;
92;SDS011;16232;48.800;9.002;2023-06-10T14:52:33;3.47;;;2.97;;
92;SDS011;16232;48.800;9.002;2023-06-10T14:55:00;3.43;;;3.03;;
92;SDS011;16232;48.800;9.002;2023-06-10T14:57:29;3.03;;;2.83;;
92;SDS011;16232;48.800;9.002;2023-06-10T14:59:56;3.63;;;2.90;;
92;SDS011;16232;48.800;9.002;2023-06-10T15:02:24;4.23;;;3.90;;
92;SDS011;16232;48.800;9.002;2023-06-10T15:04:51;3.87;;;3.43;;
92;SDS011;16232;48.800;9.002;2023-06-10T15:07:19;3.73;;;3.43;;
92;SDS011;16232;48.800;9.002;2023-06-10T15:09:46;3.57;;;3.27;;
92;SDS011;16232;48.800;9.002;2023-06-10T15:12:14;3.87;;;3.00;;
92;SDS011;16232;48.800;9.002;2023-06-10T15:14:43;3.83;;;3.27;;
92;SDS011;16232;48.800;9.002;2023-06-10T15:17:10;3.80;;;3.50;;
92;SDS011;16232;48.800;9.002;2023-06-10T15:19:38;3.90;;;3.60;;
92;SDS011;16232;48.800;9.002;2023-06-10T15:22:05;3.77;;;3.47;;
92;SDS011;16232;48.800;9.002;2023-06-10T15:24:33;3.80;;;3.47;;
92;SDS011;16232;48.800;9.002;2023-06-10T15:27:00;3.47;;;3.17;;
92;SDS011;16232;48.800;9.002;2023-06-10T15:29:27;3.50;;;3.20;;